sensor_id;sensor_type;location;lat;lon;timestamp;P1;durP1;ratioP1;P2;durP2;ratioP2
25615;SDS011;13482;48.234;13.006;2022-08-21T00:01:51;3.45;;;1.30;;
25615;SDS011;13482;48.234;13.006;2022-08-21T00:04:19;1.15;;;0.93;;
25615;SDS011;13482;48.234;13.006;2022-08-21T00:06:48;2.63;;;1.10;;
25615;SDS011;13482;48.234;13.006;2022-08-21T00:09:17;1.55;;;0.98;;
25615;SDS011;13482;48.234;13.006;2022-08-21T00:11:45;2.42;;;1.17;;
25615;SDS011;13482;48.234;13.006;2022-08-21T00:14:14;1.95;;;1.00;;
25615;SDS011;13482;48.234;13.006;2022-08-21T00:16:42;2.67;;;1.13;;
25615;SDS011;13482;48.234;13.006;2022-08-21T00:19:09;2.67;;;1.30;;
25615;SDS011;13482;48.234;13.006;2022-08-21T00:21:37;1.58;;;1.17;;
25615;SDS011;13482;48.234;13.006;2022-08-21T00:24:04;2.72;;;1.45;;
25615;SDS011;13482;48.234;13.006;2022-08-21T00:26:32;1.70;;;1.20;;
25615;SDS011;13482;48.234;13.006;2022-08-21T00:29:02;2.90;;;1.58;;
25615;SDS011;13482;48.234;13.006;2022-08-21T00:31:29;3.42;;;1.30;;
25615;SDS011;13482;48.234;13.006;2022-08-21T00:33:57;1.77;;;1.35;;
25615;SDS011;13482;48.234;13.006;2022-08-21T00:36:26;1.90;;;1.15;;
25615;SDS011;13482;48.234;13.006;2022-08-21T00:38:54;2.42;;;1.40;;
25615;SDS011;13482;48.234;13.006;2022-08-21T00:41:22;1.95;;;1.27;;
25615;SDS011;13482;48.234;13.006;2022-08-21T00:44:04;1.80;;;1.40;;
25615;SDS011;13482;48.234;13.006;2022-08-21T00:46:37;1.75;;;1.38;;
25615;SDS011;13482;48.234;13.006;2022-08-21T00:49:05;1.90;;;1.33;;
25615;SDS011;13482;48.234;13.006;2022-08-21T00:51:42;2.15;;;1.40;;
25615;SDS011;13482;48.234;13.006;2022-08-21T00:54:19;2.90;;;1.75;;
25615;SDS011;13482;48.234;13.006;2022-08-21T00:56:54;2.95;;;1.13;;
25615;SDS011;13482;48.234;13.006;2022-08-21T00:59:27;3.25;;;1.50;;
25615;SDS011;13482;48.234;13.006;2022-08-21T01:01:59;2.47;;;1.50;;
25615;SDS011;13482;48.234;13.006;2022-08-21T01:04:27;2.90;;;1.67;;
25615;SDS011;13482;48.234;13.006;2022-08-21T01:06:54;2.15;;;1.55;;
25615;SDS011;13482;48.234;13.006;2022-08-21T01:09:22;2.35;;;1.70;;
25615;SDS011;13482;48.234;13.006;2022-08-21T01:11:49;3.63;;;1.60;;
25615;SDS011;13482;48.234;13.006;2022-08-21T01:14:16;1.98;;;1.48;;
25615;SDS011;13482;48.234;13.006;2022-08-21T01:16:48;2.85;;;1.70;;
25615;SDS011;13482;48.234;13.006;2022-08-21T01:19:18;2.33;;;1.52;;
25615;SDS011;13482;48.234;13.006;2022-08-21T01:21:48;3.03;;;1.77;;
25615;SDS011;13482;48.234;13.006;2022-08-21T01:24:16;2.30;;;1.90;;
25615;SDS011;13482;48.234;13.006;2022-08-21T01:26:43;2.10;;;1.65;;
25615;SDS011;13482;48.234;13.006;2022-08-21T01:32:09;3.25;;;2.00;;
25615;SDS011;13482;48.234;13.006;2022-08-21T01:34:44;2.88;;;1.83;;
25615;SDS011;13482;48.234;13.006;2022-08-21T01:37:14;4.40;;;1.98;;
25615;SDS011;13482;48.234;13.006;2022-08-21T01:39:43;2.20;;;1.80;;
25615;SDS011;13482;48.234;13.006;2022-08-21T01:42:11;2.40;;;1.80;;
25615;SDS011;13482;48.234;13.006;2022-08-21T01:44:40;1.90;;;1.35;;
25615;SDS011;13482;48.234;13.006;2022-08-21T01:47:09;3.22;;;1.60;;
25615;SDS011;13482;48.234;13.006;2022-08-21T01:49:38;2.95;;;1.83;;
25615;SDS011;13482;48.234;13.006;2022-08-21T01:52:08;2.08;;;1.48;;
25615;SDS011;13482;48.234;13.006;2022-08-21T01:54:37;1.95;;;1.50;;
25615;SDS011;13482;48.234;13.006;2022-08-21T01:57:05;2.03;;;1.50;;
25615;SDS011;13482;48.234;13.006;2022-08-21T01:59:33;2.85;;;2.00;;
25615;SDS011;13482;48.234;13.006;2022-08-21T02:02:01;3.00;;;1.35;;
25615;SDS011;13482;48.234;13.006;2022-08-21T02:04:29;2.30;;;1.52;;
25615;SDS011;13482;48.234;13.006;2022-08-21T02:06:59;2.70;;;1.40;;
25615;SDS011;13482;48.234;13.006;2022-08-21T02:09:28;3.75;;;1.60;;
25615;SDS011;13482;48.234;13.006;2022-08-21T02:11:56;3.50;;;1.25;;
25615;SDS011;13482;48.234;13.006;2022-08-21T02:14:23;2.50;;;1.75;;
25615;SDS011;13482;48.234;13.006;2022-08-21T02:16:57;3.05;;;1.80;;
25615;SDS011;13482;48.234;13.006;2022-08-21T02:19:35;3.90;;;1.52;;
25615;SDS011;13482;48.234;13.006;2022-08-21T02:22:05;3.40;;;1.52;;
25615;SDS011;13482;48.234;13.006;2022-08-21T02:24:37;3.80;;;1.83;;
25615;SDS011;13482;48.234;13.006;2022-08-21T02:27:19;3.53;;;2.55;;
25615;SDS011;13482;48.234;13.006;2022-08-21T02:29:51;3.90;;;2.08;;
25615;SDS011;13482;48.234;13.006;2022-08-21T02:32:18;2.97;;;2.20;;
25615;SDS011;13482;48.234;13.006;2022-08-21T02:34:47;2.13;;;1.73;;
25615;SDS011;13482;48.234;13.006;2022-08-21T02:37:15;2.08;;;1.55;;
25615;SDS011;13482;48.234;13.006;2022-08-21T02:39:42;2.25;;;1.58;;
25615;SDS011;13482;48.234;13.006;2022-08-21T02:42:10;1.90;;;1.40;;
25615;SDS011;13482;48.234;13.006;2022-08-21T02:44:37;4.10;;;1.50;;
25615;SDS011;13482;48.234;13.006;2022-08-21T02:47:04;2.47;;;1.60;;
25615;SDS011;13482;48.234;13.006;2022-08-21T02:49:32;2.70;;;1.63;;
25615;SDS011;13482;48.234;13.006;2022-08-21T02:51:59;2.70;;;1.65;;
25615;SDS011;13482;48.234;13.006;2022-08-21T02:54:26;3.05;;;1.60;;
25615;SDS011;13482;48.234;13.006;2022-08-21T02:56:54;2.85;;;1.77;;
25615;SDS011;13482;48.234;13.006;2022-08-21T02:59:21;1.98;;;1.67;;
25615;SDS011;13482;48.234;13.006;2022-08-21T03:01:48;2.75;;;1.70;;
25615;SDS011;13482;48.234;13.006;2022-08-21T03:04:15;2.65;;;1.70;;
25615;SDS011;13482;48.234;13.006;2022-08-21T03:06:42;2.30;;;1.77;;
25615;SDS011;13482;48.234;13.006;2022-08-21T03:09:10;2.75;;;1.52;;
25615;SDS011;13482;48.234;13.006;2022-08-21T03:11:37;2.78;;;1.65;;
25615;SDS011;13482;48.234;13.006;2022-08-21T03:14:04;2.40;;;1.80;;
25615;SDS011;13482;48.234;13.006;2022-08-21T03:16:31;2.35;;;1.67;;
25615;SDS011;13482;48.234;13.006;2022-08-21T03:19:00;3.05;;;1.90;;
25615;SDS011;13482;48.234;13.006;2022-08-21T03:21:29;1.70;;;1.30;;
25615;SDS011;13482;48.234;13.006;2022-08-21T03:23:56;2.00;;;1.65;;
25615;SDS011;13482;48.234;13.006;2022-08-21T03:26:24;2.70;;;1.80;;
25615;SDS011;13482;48.234;13.006;2022-08-21T03:28:53;2.25;;;1.67;;
25615;SDS011;13482;48.234;13.006;2022-08-21T03:31:20;2.10;;;1.55;;
25615;SDS011;13482;48.234;13.006;2022-08-21T03:33:48;3.17;;;2.03;;
25615;SDS011;13482;48.234;13.006;2022-08-21T03:36:15;3.60;;;1.80;;
25615;SDS011;13482;48.234;13.006;2022-08-21T03:38:42;2.60;;;1.67;;
25615;SDS011;13482;48.234;13.006;2022-08-21T03:41:10;2.08;;;1.50;;
25615;SDS011;13482;48.234;13.006;2022-08-21T03:43:37;2.28;;;1.55;;
25615;SDS011;13482;48.234;13.006;2022-08-21T03:46:05;2.33;;;1.52;;
25615;SDS011;13482;48.234;13.006;2022-08-21T03:48:34;2.17;;;1.40;;
25615;SDS011;13482;48.234;13.006;2022-08-21T03:51:03;2.42;;;1.58;;
25615;SDS011;13482;48.234;13.006;2022-08-21T03:53:32;1.80;;;1.33;;
25615;SDS011;13482;48.234;13.006;2022-08-21T03:56:00;1.95;;;1.45;;
25615;SDS011;13482;48.234;13.006;2022-08-21T03:58:28;2.20;;;1.40;;
25615;SDS011;13482;48.234;13.006;2022-08-21T04:00:57;3.33;;;1.55;;
25615;SDS011;13482;48.234;13.006;2022-08-21T04:03:27;1.90;;;1.60;;
25615;SDS011;13482;48.234;13.006;2022-08-21T04:05:55;2.38;;;1.48;;
25615;SDS011;13482;48.234;13.006;2022-08-21T04:08:22;2.88;;;1.30;;
25615;SDS011;13482;48.234;13.006;2022-08-21T04:10:51;1.85;;;1.23;;
25615;SDS011;13482;48.234;13.006;2022-08-21T04:13:20;2.72;;;1.45;;
25615;SDS011;13482;48.234;13.006;2022-08-21T04:15:48;2.15;;;1.30;;
25615;SDS011;13482;48.234;13.006;2022-08-21T04:18:16;2.13;;;1.52;;
25615;SDS011;13482;48.234;13.006;2022-08-21T04:20:43;2.35;;;1.48;;
25615;SDS011;13482;48.234;13.006;2022-08-21T04:23:16;1.85;;;1.30;;
25615;SDS011;13482;48.234;13.006;2022-08-21T04:25:50;2.15;;;1.30;;
25615;SDS011;13482;48.234;13.006;2022-08-21T04:28:18;2.88;;;1.48;;
25615;SDS011;13482;48.234;13.006;2022-08-21T04:30:48;2.50;;;1.50;;
25615;SDS011;13482;48.234;13.006;2022-08-21T04:33:19;1.80;;;1.30;;
25615;SDS011;13482;48.234;13.006;2022-08-21T04:35:47;5.35;;;1.60;;
25615;SDS011;13482;48.234;13.006;2022-08-21T04:38:16;1.73;;;1.40;;
25615;SDS011;13482;48.234;13.006;2022-08-21T04:40:45;1.88;;;1.42;;
25615;SDS011;13482;48.234;13.006;2022-08-21T04:43:12;3.22;;;1.40;;
25615;SDS011;13482;48.234;13.006;2022-08-21T04:45:41;2.75;;;1.60;;
25615;SDS011;13482;48.234;13.006;2022-08-21T04:48:12;2.83;;;1.50;;
25615;SDS011;13482;48.234;13.006;2022-08-21T04:56:45;2.30;;;1.17;;
25615;SDS011;13482;48.234;13.006;2022-08-21T04:59:22;2.17;;;1.00;;
25615;SDS011;13482;48.234;13.006;2022-08-21T05:01:59;3.33;;;1.10;;
25615;SDS011;13482;48.234;13.006;2022-08-21T05:04:29;1.83;;;1.15;;
25615;SDS011;13482;48.234;13.006;2022-08-21T05:07:00;1.53;;;0.97;;
25615;SDS011;13482;48.234;13.006;2022-08-21T05:09:31;2.03;;;1.17;;
25615;SDS011;13482;48.234;13.006;2022-08-21T05:12:00;2.50;;;1.30;;
25615;SDS011;13482;48.234;13.006;2022-08-21T05:14:28;2.08;;;1.13;;
25615;SDS011;13482;48.234;13.006;2022-08-21T05:16:56;2.00;;;1.20;;
25615;SDS011;13482;48.234;13.006;2022-08-21T05:19:23;2.22;;;1.00;;
25615;SDS011;13482;48.234;13.006;2022-08-21T05:21:51;1.70;;;1.00;;
25615;SDS011;13482;48.234;13.006;2022-08-21T05:24:18;1.70;;;1.00;;
25615;SDS011;13482;48.234;13.006;2022-08-21T05:26:46;2.88;;;1.25;;
25615;SDS011;13482;48.234;13.006;2022-08-21T05:29:13;1.30;;;0.93;;
25615;SDS011;13482;48.234;13.006;2022-08-21T05:31:44;1.38;;;0.90;;
25615;SDS011;13482;48.234;13.006;2022-08-21T05:34:14;1.98;;;1.20;;
25615;SDS011;13482;48.234;13.006;2022-08-21T05:36:46;2.58;;;1.10;;
25615;SDS011;13482;48.234;13.006;2022-08-21T05:39:13;1.65;;;1.00;;
25615;SDS011;13482;48.234;13.006;2022-08-21T05:41:41;1.95;;;1.13;;
25615;SDS011;13482;48.234;13.006;2022-08-21T05:44:08;5.03;;;1.10;;
25615;SDS011;13482;48.234;13.006;2022-08-21T05:46:36;1.83;;;1.00;;
25615;SDS011;13482;48.234;13.006;2022-08-21T05:49:04;1.02;;;0.80;;
25615;SDS011;13482;48.234;13.006;2022-08-21T05:51:31;1.38;;;0.98;;
25615;SDS011;13482;48.234;13.006;2022-08-21T05:53:59;1.60;;;1.00;;
25615;SDS011;13482;48.234;13.006;2022-08-21T05:56:26;3.42;;;1.10;;
25615;SDS011;13482;48.234;13.006;2022-08-21T05:58:53;3.10;;;1.00;;
25615;SDS011;13482;48.234;13.006;2022-08-21T06:01:21;2.45;;;1.15;;
25615;SDS011;13482;48.234;13.006;2022-08-21T06:03:49;1.30;;;0.88;;
25615;SDS011;13482;48.234;13.006;2022-08-21T06:06:16;2.00;;;1.10;;
25615;SDS011;13482;48.234;13.006;2022-08-21T06:08:44;1.48;;;1.00;;
25615;SDS011;13482;48.234;13.006;2022-08-21T06:11:11;1.10;;;0.90;;
25615;SDS011;13482;48.234;13.006;2022-08-21T06:13:39;2.38;;;1.10;;
25615;SDS011;13482;48.234;13.006;2022-08-21T06:16:08;2.90;;;1.15;;
25615;SDS011;13482;48.234;13.006;2022-08-21T06:18:42;2.13;;;1.02;;
25615;SDS011;13482;48.234;13.006;2022-08-21T06:21:12;1.58;;;1.20;;
25615;SDS011;13482;48.234;13.006;2022-08-21T06:23:40;2.60;;;1.30;;
25615;SDS011;13482;48.234;13.006;2022-08-21T06:26:10;2.03;;;1.17;;
25615;SDS011;13482;48.234;13.006;2022-08-21T06:28:40;1.20;;;0.95;;
25615;SDS011;13482;48.234;13.006;2022-08-21T06:31:13;1.60;;;1.10;;
25615;SDS011;13482;48.234;13.006;2022-08-21T06:33:50;1.60;;;1.20;;
25615;SDS011;13482;48.234;13.006;2022-08-21T06:36:18;1.65;;;1.30;;
25615;SDS011;13482;48.234;13.006;2022-08-21T06:38:47;1.70;;;1.25;;
25615;SDS011;13482;48.234;13.006;2022-08-21T06:41:17;2.25;;;1.40;;
25615;SDS011;13482;48.234;13.006;2022-08-21T06:43:49;2.03;;;1.27;;
25615;SDS011;13482;48.234;13.006;2022-08-21T06:46:17;1.65;;;1.10;;
25615;SDS011;13482;48.234;13.006;2022-08-21T06:48:44;2.13;;;1.40;;
25615;SDS011;13482;48.234;13.006;2022-08-21T06:51:12;2.25;;;1.30;;
25615;SDS011;13482;48.234;13.006;2022-08-21T06:53:39;2.20;;;1.20;;
25615;SDS011;13482;48.234;13.006;2022-08-21T06:56:07;2.45;;;1.30;;
25615;SDS011;13482;48.234;13.006;2022-08-21T06:58:34;1.70;;;1.20;;
25615;SDS011;13482;48.234;13.006;2022-08-21T07:01:02;2.45;;;1.60;;
25615;SDS011;13482;48.234;13.006;2022-08-21T07:03:32;3.25;;;1.40;;
25615;SDS011;13482;48.234;13.006;2022-08-21T07:08:30;1.60;;;1.20;;
25615;SDS011;13482;48.234;13.006;2022-08-21T07:10:58;1.60;;;1.13;;
25615;SDS011;13482;48.234;13.006;2022-08-21T07:13:29;2.10;;;1.30;;
25615;SDS011;13482;48.234;13.006;2022-08-21T07:15:56;1.75;;;1.40;;
25615;SDS011;13482;48.234;13.006;2022-08-21T07:18:29;2.03;;;1.38;;
25615;SDS011;13482;48.234;13.006;2022-08-21T07:20:57;2.00;;;1.30;;
25615;SDS011;13482;48.234;13.006;2022-08-21T07:23:26;2.65;;;1.50;;
25615;SDS011;13482;48.234;13.006;2022-08-21T07:25:58;1.60;;;1.30;;
25615;SDS011;13482;48.234;13.006;2022-08-21T07:28:27;2.20;;;1.58;;
25615;SDS011;13482;48.234;13.006;2022-08-21T07:30:57;2.00;;;1.67;;
25615;SDS011;13482;48.234;13.006;2022-08-21T07:33:27;2.30;;;1.70;;
25615;SDS011;13482;48.234;13.006;2022-08-21T07:35:57;2.53;;;1.95;;
25615;SDS011;13482;48.234;13.006;2022-08-21T07:38:24;2.67;;;2.00;;
25615;SDS011;13482;48.234;13.006;2022-08-21T07:40:54;2.55;;;1.95;;
25615;SDS011;13482;48.234;13.006;2022-08-21T07:43:25;2.65;;;1.98;;
25615;SDS011;13482;48.234;13.006;2022-08-21T07:45:53;3.50;;;1.90;;
25615;SDS011;13482;48.234;13.006;2022-08-21T07:48:21;3.50;;;2.30;;
25615;SDS011;13482;48.234;13.006;2022-08-21T07:50:49;2.05;;;1.75;;
25615;SDS011;13482;48.234;13.006;2022-08-21T07:53:17;2.83;;;2.00;;
25615;SDS011;13482;48.234;13.006;2022-08-21T07:55:44;1.95;;;1.63;;
25615;SDS011;13482;48.234;13.006;2022-08-21T07:58:12;2.60;;;1.75;;
25615;SDS011;13482;48.234;13.006;2022-08-21T08:00:39;3.05;;;2.35;;
25615;SDS011;13482;48.234;13.006;2022-08-21T08:03:07;2.90;;;2.17;;
25615;SDS011;13482;48.234;13.006;2022-08-21T08:05:35;2.20;;;1.80;;
25615;SDS011;13482;48.234;13.006;2022-08-21T08:08:06;4.03;;;2.20;;
25615;SDS011;13482;48.234;13.006;2022-08-21T08:10:33;2.00;;;1.73;;
25615;SDS011;13482;48.234;13.006;2022-08-21T08:13:02;2.13;;;1.92;;
25615;SDS011;13482;48.234;13.006;2022-08-21T08:15:29;2.30;;;1.85;;
25615;SDS011;13482;48.234;13.006;2022-08-21T08:18:02;2.40;;;2.10;;
25615;SDS011;13482;48.234;13.006;2022-08-21T08:20:30;3.15;;;2.50;;
25615;SDS011;13482;48.234;13.006;2022-08-21T08:22:57;2.58;;;2.05;;
25615;SDS011;13482;48.234;13.006;2022-08-21T08:25:25;2.60;;;2.20;;
25615;SDS011;13482;48.234;13.006;2022-08-21T08:28:01;2.65;;;2.22;;
25615;SDS011;13482;48.234;13.006;2022-08-21T08:30:43;2.85;;;2.03;;
25615;SDS011;13482;48.234;13.006;2022-08-21T08:33:12;3.63;;;2.30;;
25615;SDS011;13482;48.234;13.006;2022-08-21T08:35:41;3.00;;;2.20;;
25615;SDS011;13482;48.234;13.006;2022-08-21T08:38:13;3.38;;;2.17;;
25615;SDS011;13482;48.234;13.006;2022-08-21T08:41:00;2.15;;;1.88;;
25615;SDS011;13482;48.234;13.006;2022-08-21T08:44:00;2.60;;;2.10;;
25615;SDS011;13482;48.234;13.006;2022-08-21T08:46:41;2.95;;;2.15;;
25615;SDS011;13482;48.234;13.006;2022-08-21T08:49:15;3.15;;;2.28;;
25615;SDS011;13482;48.234;13.006;2022-08-21T08:52:03;2.63;;;2.28;;
25615;SDS011;13482;48.234;13.006;2022-08-21T08:54:39;3.00;;;2.25;;
25615;SDS011;13482;48.234;13.006;2022-08-21T08:57:16;2.88;;;2.35;;
25615;SDS011;13482;48.234;13.006;2022-08-21T08:59:49;2.33;;;2.03;;
25615;SDS011;13482;48.234;13.006;2022-08-21T09:02:19;2.58;;;2.35;;
25615;SDS011;13482;48.234;13.006;2022-08-21T09:04:50;3.10;;;2.25;;
25615;SDS011;13482;48.234;13.006;2022-08-21T09:10:37;3.00;;;2.60;;
25615;SDS011;13482;48.234;13.006;2022-08-21T09:13:24;2.90;;;2.60;;
25615;SDS011;13482;48.234;13.006;2022-08-21T09:25:10;3.55;;;2.65;;
25615;SDS011;13482;48.234;13.006;2022-08-21T09:27:49;3.80;;;3.40;;
25615;SDS011;13482;48.234;13.006;2022-08-21T09:30:17;3.63;;;3.00;;
25615;SDS011;13482;48.234;13.006;2022-08-21T09:32:50;2.97;;;2.65;;
25615;SDS011;13482;48.234;13.006;2022-08-21T09:35:19;3.03;;;2.72;;
25615;SDS011;13482;48.234;13.006;2022-08-21T09:37:50;3.20;;;2.90;;
25615;SDS011;13482;48.234;13.006;2022-08-21T09:40:39;2.83;;;2.53;;
25615;SDS011;13482;48.234;13.006;2022-08-21T09:45:48;3.78;;;3.25;;
25615;SDS011;13482;48.234;13.006;2022-08-21T09:48:47;2.97;;;2.55;;
25615;SDS011;13482;48.234;13.006;2022-08-21T09:51:20;2.60;;;2.35;;
25615;SDS011;13482;48.234;13.006;2022-08-21T09:53:58;3.30;;;2.75;;
25615;SDS011;13482;48.234;13.006;2022-08-21T09:56:33;3.17;;;2.88;;
25615;SDS011;13482;48.234;13.006;2022-08-21T09:59:30;3.15;;;2.75;;
25615;SDS011;13482;48.234;13.006;2022-08-21T10:04:51;3.20;;;2.88;;
25615;SDS011;13482;48.234;13.006;2022-08-21T10:07:26;3.15;;;2.85;;
25615;SDS011;13482;48.234;13.006;2022-08-21T10:10:00;3.22;;;2.78;;
25615;SDS011;13482;48.234;13.006;2022-08-21T10:12:48;3.28;;;2.88;;
25615;SDS011;13482;48.234;13.006;2022-08-21T10:15:22;3.33;;;3.03;;
25615;SDS011;13482;48.234;13.006;2022-08-21T10:20:44;3.40;;;2.72;;
25615;SDS011;13482;48.234;13.006;2022-08-21T10:29:45;2.97;;;2.40;;
25615;SDS011;13482;48.234;13.006;2022-08-21T10:35:09;3.03;;;2.40;;
25615;SDS011;13482;48.234;13.006;2022-08-21T10:41:14;3.20;;;2.78;;
25615;SDS011;13482;48.234;13.006;2022-08-21T10:44:24;3.33;;;3.03;;
25615;SDS011;13482;48.234;13.006;2022-08-21T10:55:51;4.18;;;3.30;;
25615;SDS011;13482;48.234;13.006;2022-08-21T11:00:59;3.47;;;3.17;;
25615;SDS011;13482;48.234;13.006;2022-08-21T11:03:39;3.38;;;2.92;;
25615;SDS011;13482;48.234;13.006;2022-08-21T11:06:15;3.35;;;3.00;;
25615;SDS011;13482;48.234;13.006;2022-08-21T11:08:55;3.50;;;3.13;;
25615;SDS011;13482;48.234;13.006;2022-08-21T11:16:51;3.72;;;3.42;;
25615;SDS011;13482;48.234;13.006;2022-08-21T11:22:32;3.30;;;3.00;;
25615;SDS011;13482;48.234;13.006;2022-08-21T11:25:31;3.20;;;2.90;;
25615;SDS011;13482;48.234;13.006;2022-08-21T11:28:13;3.60;;;2.92;;
25615;SDS011;13482;48.234;13.006;2022-08-21T11:31:11;4.75;;;3.30;;
25615;SDS011;13482;48.234;13.006;2022-08-21T11:37:12;2.92;;;2.63;;
25615;SDS011;13482;48.234;13.006;2022-08-21T11:40:06;3.83;;;2.85;;
25615;SDS011;13482;48.234;13.006;2022-08-21T11:42:55;3.20;;;2.90;;
25615;SDS011;13482;48.234;13.006;2022-08-21T11:51:18;2.75;;;2.55;;
25615;SDS011;13482;48.234;13.006;2022-08-21T11:57:06;2.83;;;2.58;;
25615;SDS011;13482;48.234;13.006;2022-08-21T11:59:52;2.88;;;2.58;;
25615;SDS011;13482;48.234;13.006;2022-08-21T12:02:29;2.90;;;2.58;;
25615;SDS011;13482;48.234;13.006;2022-08-21T12:05:07;2.50;;;2.30;;
25615;SDS011;13482;48.234;13.006;2022-08-21T12:07:47;2.95;;;2.70;;
25615;SDS011;13482;48.234;13.006;2022-08-21T12:10:16;2.70;;;2.50;;
25615;SDS011;13482;48.234;13.006;2022-08-21T12:12:48;3.00;;;2.75;;
25615;SDS011;13482;48.234;13.006;2022-08-21T12:23:24;3.47;;;2.63;;
25615;SDS011;13482;48.234;13.006;2022-08-21T12:26:23;3.95;;;2.55;;
25615;SDS011;13482;48.234;13.006;2022-08-21T12:29:07;3.22;;;2.40;;
25615;SDS011;13482;48.234;13.006;2022-08-21T12:31:48;2.90;;;2.55;;
25615;SDS011;13482;48.234;13.006;2022-08-21T12:42:44;2.55;;;2.35;;
25615;SDS011;13482;48.234;13.006;2022-08-21T12:48:18;3.92;;;2.33;;
25615;SDS011;13482;48.234;13.006;2022-08-21T12:51:45;2.55;;;2.35;;
25615;SDS011;13482;48.234;13.006;2022-08-21T12:54:27;2.80;;;2.50;;
25615;SDS011;13482;48.234;13.006;2022-08-21T12:57:00;4.20;;;3.00;;
25615;SDS011;13482;48.234;13.006;2022-08-21T12:59:30;2.92;;;2.63;;
25615;SDS011;13482;48.234;13.006;2022-08-21T13:02:03;3.72;;;2.55;;
25615;SDS011;13482;48.234;13.006;2022-08-21T13:04:43;2.40;;;2.08;;
25615;SDS011;13482;48.234;13.006;2022-08-21T13:07:14;3.35;;;2.88;;
25615;SDS011;13482;48.234;13.006;2022-08-21T13:09:52;4.10;;;3.03;;
25615;SDS011;13482;48.234;13.006;2022-08-21T13:12:23;3.40;;;3.10;;
25615;SDS011;13482;48.234;13.006;2022-08-21T13:14:58;2.70;;;2.47;;
25615;SDS011;13482;48.234;13.006;2022-08-21T13:17:36;4.18;;;2.85;;
25615;SDS011;13482;48.234;13.006;2022-08-21T13:20:08;2.85;;;2.60;;
25615;SDS011;13482;48.234;13.006;2022-08-21T13:22:49;3.17;;;2.67;;
25615;SDS011;13482;48.234;13.006;2022-08-21T13:25:18;3.05;;;2.75;;
25615;SDS011;13482;48.234;13.006;2022-08-21T13:28:07;2.70;;;2.50;;
25615;SDS011;13482;48.234;13.006;2022-08-21T13:30:39;4.75;;;2.72;;
25615;SDS011;13482;48.234;13.006;2022-08-21T13:33:19;3.03;;;2.72;;
25615;SDS011;13482;48.234;13.006;2022-08-21T13:36:04;2.35;;;2.15;;
25615;SDS011;13482;48.234;13.006;2022-08-21T13:38:47;2.35;;;2.15;;
25615;SDS011;13482;48.234;13.006;2022-08-21T13:41:31;2.45;;;2.25;;
25615;SDS011;13482;48.234;13.006;2022-08-21T13:44:03;2.38;;;2.10;;
25615;SDS011;13482;48.234;13.006;2022-08-21T13:46:52;2.45;;;2.00;;
25615;SDS011;13482;48.234;13.006;2022-08-21T13:49:23;2.70;;;2.20;;
25615;SDS011;13482;48.234;13.006;2022-08-21T13:51:59;2.55;;;2.10;;
25615;SDS011;13482;48.234;13.006;2022-08-21T13:54:39;2.38;;;1.98;;
25615;SDS011;13482;48.234;13.006;2022-08-21T13:57:23;2.33;;;2.00;;
25615;SDS011;13482;48.234;13.006;2022-08-21T14:02:47;2.85;;;2.58;;
25615;SDS011;13482;48.234;13.006;2022-08-21T14:05:21;2.70;;;2.42;;
25615;SDS011;13482;48.234;13.006;2022-08-21T14:08:04;2.47;;;2.08;;
25615;SDS011;13482;48.234;13.006;2022-08-21T14:10:55;2.58;;;2.35;;
25615;SDS011;13482;48.234;13.006;2022-08-21T14:18:53;2.85;;;2.40;;
25615;SDS011;13482;48.234;13.006;2022-08-21T14:21:31;2.60;;;2.40;;
25615;SDS011;13482;48.234;13.006;2022-08-21T14:29:25;2.20;;;1.95;;
25615;SDS011;13482;48.234;13.006;2022-08-21T14:31:59;2.13;;;1.83;;
25615;SDS011;13482;48.234;13.006;2022-08-21T14:34:50;2.20;;;1.85;;
25615;SDS011;13482;48.234;13.006;2022-08-21T14:37:20;2.47;;;2.00;;
25615;SDS011;13482;48.234;13.006;2022-08-21T14:39:49;1.90;;;1.70;;
25615;SDS011;13482;48.234;13.006;2022-08-21T14:42:17;4.32;;;2.00;;
25615;SDS011;13482;48.234;13.006;2022-08-21T14:44:44;2.75;;;2.20;;
25615;SDS011;13482;48.234;13.006;2022-08-21T14:47:12;2.42;;;2.08;;
25615;SDS011;13482;48.234;13.006;2022-08-21T14:49:39;2.65;;;2.13;;
25615;SDS011;13482;48.234;13.006;2022-08-21T14:52:07;3.10;;;2.00;;
25615;SDS011;13482;48.234;13.006;2022-08-21T14:54:34;3.17;;;2.00;;
25615;SDS011;13482;48.234;13.006;2022-08-21T14:57:04;2.22;;;2.00;;
25615;SDS011;13482;48.234;13.006;2022-08-21T14:59:35;1.90;;;1.50;;
25615;SDS011;13482;48.234;13.006;2022-08-21T15:02:04;2.28;;;1.88;;
25615;SDS011;13482;48.234;13.006;2022-08-21T15:04:34;1.90;;;1.70;;
25615;SDS011;13482;48.234;13.006;2022-08-21T15:07:02;2.92;;;1.85;;
25615;SDS011;13482;48.234;13.006;2022-08-21T15:09:30;2.25;;;1.77;;
25615;SDS011;13482;48.234;13.006;2022-08-21T15:11:58;2.42;;;1.90;;
25615;SDS011;13482;48.234;13.006;2022-08-21T15:14:29;2.33;;;1.98;;
25615;SDS011;13482;48.234;13.006;2022-08-21T15:17:01;2.10;;;1.80;;
25615;SDS011;13482;48.234;13.006;2022-08-21T15:19:30;2.42;;;2.08;;
25615;SDS011;13482;48.234;13.006;2022-08-21T15:21:57;2.08;;;1.80;;
25615;SDS011;13482;48.234;13.006;2022-08-21T15:24:25;2.47;;;2.20;;
25615;SDS011;13482;48.234;13.006;2022-08-21T15:26:52;2.03;;;1.80;;
25615;SDS011;13482;48.234;13.006;2022-08-21T15:29:21;2.42;;;1.98;;
25615;SDS011;13482;48.234;13.006;2022-08-21T15:31:55;2.33;;;1.90;;
25615;SDS011;13482;48.234;13.006;2022-08-21T15:34:42;2.22;;;1.80;;
25615;SDS011;13482;48.234;13.006;2022-08-21T15:37:09;2.20;;;2.00;;
25615;SDS011;13482;48.234;13.006;2022-08-21T15:39:37;1.90;;;1.63;;
25615;SDS011;13482;48.234;13.006;2022-08-21T15:42:06;2.20;;;1.70;;
25615;SDS011;13482;48.234;13.006;2022-08-21T15:44:36;1.92;;;1.70;;
25615;SDS011;13482;48.234;13.006;2022-08-21T15:47:29;2.30;;;1.90;;
25615;SDS011;13482;48.234;13.006;2022-08-21T15:49:56;1.83;;;1.60;;
25615;SDS011;13482;48.234;13.006;2022-08-21T15:52:23;2.10;;;1.77;;
25615;SDS011;13482;48.234;13.006;2022-08-21T15:54:51;2.03;;;1.60;;
25615;SDS011;13482;48.234;13.006;2022-08-21T15:57:20;2.05;;;1.75;;
25615;SDS011;13482;48.234;13.006;2022-08-21T16:00:00;1.80;;;1.50;;
25615;SDS011;13482;48.234;13.006;2022-08-21T16:02:39;2.00;;;1.65;;
25615;SDS011;13482;48.234;13.006;2022-08-21T16:07:38;2.08;;;1.80;;
25615;SDS011;13482;48.234;13.006;2022-08-21T16:10:06;1.95;;;1.60;;
25615;SDS011;13482;48.234;13.006;2022-08-21T16:12:35;2.08;;;1.70;;
25615;SDS011;13482;48.234;13.006;2022-08-21T16:15:07;2.55;;;1.50;;
25615;SDS011;13482;48.234;13.006;2022-08-21T16:17:46;2.20;;;1.90;;
25615;SDS011;13482;48.234;13.006;2022-08-21T16:20:18;4.95;;;2.58;;
25615;SDS011;13482;48.234;13.006;2022-08-21T16:22:50;2.50;;;1.80;;
25615;SDS011;13482;48.234;13.006;2022-08-21T16:25:20;3.28;;;1.50;;
25615;SDS011;13482;48.234;13.006;2022-08-21T16:27:50;1.80;;;1.48;;
25615;SDS011;13482;48.234;13.006;2022-08-21T16:30:26;1.60;;;1.27;;
25615;SDS011;13482;48.234;13.006;2022-08-21T16:32:54;2.15;;;1.60;;
25615;SDS011;13482;48.234;13.006;2022-08-21T16:35:22;1.55;;;1.15;;
25615;SDS011;13482;48.234;13.006;2022-08-21T16:37:50;1.92;;;1.55;;
25615;SDS011;13482;48.234;13.006;2022-08-21T16:40:19;1.70;;;1.40;;
25615;SDS011;13482;48.234;13.006;2022-08-21T16:42:48;1.90;;;1.50;;
25615;SDS011;13482;48.234;13.006;2022-08-21T16:45:17;1.95;;;1.50;;
25615;SDS011;13482;48.234;13.006;2022-08-21T16:47:49;1.60;;;1.30;;
25615;SDS011;13482;48.234;13.006;2022-08-21T16:50:18;1.60;;;1.33;;
25615;SDS011;13482;48.234;13.006;2022-08-21T16:52:49;1.60;;;1.30;;
25615;SDS011;13482;48.234;13.006;2022-08-21T16:55:17;1.52;;;1.27;;